createdAt,value
2019-04-14T00:01:17.259Z,97.30
2019-04-14T00:03:47.650Z,97.40
2019-04-14T00:06:18.079Z,97.40
2019-04-14T00:08:47.955Z,97.40
2019-04-14T00:11:17.333Z,97.50
2019-04-14T00:13:47.759Z,97.90
2019-04-14T00:16:16.450Z,97.80
2019-04-14T00:18:46.880Z,98.00
2019-04-14T00:21:17.267Z,98.10
2019-04-14T00:23:47.900Z,98.40
2019-04-14T00:26:27.203Z,98.20
2019-04-14T00:28:57.895Z,98.10
2019-04-14T00:31:28.706Z,98.60
2019-04-14T00:34:00.770Z,98.40
2019-04-14T00:36:32.595Z,98.30
2019-04-14T00:39:05.320Z,98.10
2019-04-14T00:41:58.215Z,98.30
2019-04-14T00:44:43.000Z,98.10
2019-04-14T00:47:20.047Z,98.00
2019-04-14T00:49:50.774Z,97.70
2019-04-14T00:52:21.160Z,97.40
2019-04-14T00:54:50.604Z,97.70
2019-04-14T00:57:20.140Z,97.70
2019-04-14T00:59:50.784Z,97.20
2019-04-14T01:02:21.254Z,97.40
2019-04-14T01:04:51.376Z,97.60
2019-04-14T01:07:21.627Z,97.80
2019-04-14T01:09:55.358Z,97.90
2019-04-14T01:12:25.753Z,97.80
2019-04-14T01:14:55.988Z,97.50
2019-04-14T01:17:26.505Z,97.30
2019-04-14T01:19:56.961Z,97.20
2019-04-14T01:22:27.078Z,97.20
2019-04-14T01:24:57.470Z,97.30
2019-04-14T01:27:27.787Z,97.30
2019-04-14T01:30:02.695Z,97.30
2019-04-14T01:32:32.727Z,97.40
2019-04-14T01:35:03.381Z,97.30
2019-04-14T01:37:33.293Z,97.40
2019-04-14T01:40:07.437Z,97.70
2019-04-14T01:42:37.744Z,97.50
2019-04-14T01:45:08.133Z,97.50
2019-04-14T01:47:37.727Z,97.60
2019-04-14T01:50:08.307Z,97.30
2019-04-14T01:52:52.274Z,97.10
2019-04-14T01:55:33.039Z,97.10
2019-04-14T01:58:05.303Z,97.30
2019-04-14T02:00:51.393Z,97.10
2019-04-14T02:03:21.723Z,97.10
2019-04-14T02:05:51.726Z,96.80
2019-04-14T02:08:21.998Z,96.80
2019-04-14T02:10:52.055Z,97.00
2019-04-14T02:13:22.539Z,97.10
2019-04-14T02:15:52.870Z,97.00
2019-04-14T02:18:22.933Z,97.00
2019-04-14T02:20:53.487Z,97.20
2019-04-14T02:23:23.523Z,96.90
2019-04-14T02:25:53.628Z,97.00
2019-04-14T02:28:24.242Z,97.30
2019-04-14T02:31:08.244Z,97.00
2019-04-14T02:41:29.983Z,97.50
2019-04-14T02:44:01.670Z,97.60
2019-04-14T02:46:35.715Z,97.80
2019-04-14T02:51:27.575Z,97.80
2019-04-14T02:54:06.811Z,97.60
2019-04-14T02:56:43.434Z,97.60
2019-04-14T02:58:58.580Z,97.70
2019-04-14T03:01:31.633Z,98.30
2019-04-14T03:03:57.910Z,97.80
2019-04-14T03:06:50.404Z,97.80
2019-04-14T03:09:15.343Z,97.60
2019-04-14T03:11:32.653Z,97.50
2019-04-14T03:14:11.784Z,97.50
2019-04-14T03:17:06.140Z,97.50
2019-04-14T03:19:30.880Z,97.60
2019-04-14T03:22:07.515Z,97.70
2019-04-14T03:24:39.100Z,97.80
2019-04-14T03:27:22.821Z,97.80
2019-04-14T03:35:03.589Z,98.40
2019-04-14T03:40:00.962Z,98.30
2019-04-14T03:42:37.695Z,98.60
2019-04-14T03:45:11.147Z,98.90
2019-04-14T03:50:06.166Z,98.80
2019-04-14T03:52:40.829Z,99.00
2019-04-14T03:54:57.095Z,99.00
2019-04-14T03:57:10.457Z,99.10
2019-04-14T03:59:39.865Z,99.10
2019-04-14T04:02:09.675Z,99.20
2019-04-14T04:04:40.150Z,99.30
2019-04-14T04:07:10.320Z,99.40
2019-04-14T04:09:49.636Z,99.40
2019-04-14T04:12:20.278Z,99.40
2019-04-14T04:14:48.982Z,99.40
2019-04-14T04:17:23.259Z,99.70
2019-04-14T04:19:57.668Z,99.60
2019-04-14T04:22:45.593Z,99.90
2019-04-14T04:25:20.369Z,99.90
2019-04-14T04:27:56.892Z,99.90
2019-04-14T04:30:34.111Z,99.90
2019-04-14T04:33:19.965Z,99.90
2019-04-14T04:36:01.093Z,99.70
2019-04-14T04:38:33.332Z,99.40
2019-04-14T04:41:03.756Z,99.30
2019-04-14T04:43:34.111Z,99.30
2019-04-14T04:46:04.894Z,99.20
2019-04-14T04:48:34.970Z,99.30
2019-04-14T04:51:05.005Z,99.30
2019-04-14T04:53:35.344Z,99.10
2019-04-14T04:56:05.733Z,99.00
2019-04-14T04:58:34.859Z,98.90
2019-04-14T05:01:04.133Z,98.90
2019-04-14T05:03:34.493Z,98.90
2019-04-14T05:06:35.359Z,98.90
2019-04-14T05:09:07.917Z,98.80
2019-04-14T05:11:39.017Z,98.80
2019-04-14T05:14:26.340Z,98.80
2019-04-14T05:16:55.691Z,98.70
2019-04-14T05:19:31.147Z,98.70
2019-04-14T05:21:55.967Z,98.70
2019-04-14T05:24:25.269Z,98.90
2019-04-14T05:26:54.877Z,98.80
2019-04-14T05:29:31.840Z,98.40
2019-04-14T05:32:02.357Z,98.50
2019-04-14T05:34:32.651Z,98.40
2019-04-14T05:37:02.891Z,98.10
2019-04-14T05:39:32.924Z,97.90
2019-04-14T05:42:08.622Z,97.90
2019-04-14T05:44:34.046Z,97.60
2019-04-14T05:47:04.400Z,97.70
2019-04-14T05:49:39.168Z,97.30
2019-04-14T05:52:05.588Z,96.90
2019-04-14T05:54:36.025Z,97.00
2019-04-14T05:57:06.514Z,96.90
2019-04-14T05:59:37.521Z,96.40
2019-04-14T06:02:07.268Z,96.60
2019-04-14T06:04:37.389Z,97.00
2019-04-14T06:07:06.724Z,96.50
2019-04-14T06:09:36.070Z,96.40
2019-04-14T06:12:05.366Z,95.50
2019-04-14T06:14:34.697Z,95.50
2019-04-14T06:17:04.003Z,95.60
2019-04-14T06:19:38.118Z,95.60
2019-04-14T06:22:04.396Z,95.10
2019-04-14T06:24:33.721Z,95.50
2019-04-14T06:27:03.046Z,95.30
2019-04-14T06:29:32.348Z,94.70
2019-04-14T06:32:03.474Z,94.20
2019-04-14T06:34:34.423Z,93.90
2019-04-14T06:37:23.790Z,94.30
2019-04-14T06:40:02.791Z,93.80
2019-04-14T06:42:32.111Z,93.70
2019-04-14T06:45:02.837Z,93.40
2019-04-14T06:47:32.205Z,93.50
2019-04-14T06:50:02.836Z,92.90
2019-04-14T06:52:31.347Z,92.70
2019-04-14T06:55:00.592Z,92.70
2019-04-14T06:57:30.386Z,92.20
2019-04-14T07:00:00.655Z,90.80
2019-04-14T07:02:30.150Z,90.90
2019-04-14T07:04:59.507Z,91.00
2019-04-14T07:07:28.834Z,90.90
2019-04-14T07:10:04.888Z,90.40
2019-04-14T07:12:35.359Z,90.00
2019-04-14T07:15:07.156Z,88.70
2019-04-14T07:17:36.451Z,86.50
2019-04-14T07:20:13.183Z,86.40
2019-04-14T07:22:48.632Z,84.40
2019-04-14T07:25:17.951Z,83.40
2019-04-14T07:27:47.255Z,83.80
2019-04-14T07:30:24.343Z,82.70
2019-04-14T07:32:57.815Z,80.60
2019-04-14T07:35:43.405Z,82.10
2019-04-14T07:38:23.242Z,83.20
2019-04-14T07:41:06.085Z,81.60
2019-04-14T07:43:37.041Z,80.40
2019-04-14T07:46:22.275Z,79.50
2019-04-14T07:48:53.151Z,81.00
2019-04-14T07:51:33.310Z,80.80
2019-04-14T07:54:07.387Z,80.60
2019-04-14T07:56:41.248Z,78.80
2019-04-14T07:59:23.401Z,76.80
2019-04-14T08:01:55.452Z,78.00
2019-04-14T08:04:26.390Z,78.60
2019-04-14T08:06:56.179Z,79.00
2019-04-14T08:09:25.485Z,80.70
2019-04-14T08:11:54.837Z,82.80
2019-04-14T08:14:24.140Z,77.90
2019-04-14T08:16:53.539Z,78.50
2019-04-14T08:19:23.902Z,75.80
2019-04-14T08:21:53.223Z,75.50
2019-04-14T08:24:24.143Z,76.70
2019-04-14T08:26:53.468Z,74.60
2019-04-14T08:29:22.765Z,73.60
2019-04-14T08:31:52.080Z,73.90
2019-04-14T08:34:21.394Z,72.20
2019-04-14T08:36:50.716Z,72.00
2019-04-14T08:42:06.056Z,69.50
2019-04-14T08:44:42.993Z,73.80
2019-04-14T08:47:16.843Z,71.30
2019-04-14T08:49:59.734Z,70.50
2019-04-14T08:52:31.596Z,72.40
2019-04-14T08:55:02.699Z,70.10
2019-04-14T08:57:49.902Z,68.40
2019-04-14T09:00:20.937Z,68.20
2019-04-14T09:02:54.052Z,65.90
2019-04-14T09:05:30.651Z,62.40
2019-04-14T09:08:01.636Z,63.10
2019-04-14T09:10:32.861Z,61.70
2019-04-14T09:13:02.150Z,59.80
2019-04-14T09:15:31.505Z,60.70
2019-04-14T09:18:01.737Z,61.30
2019-04-14T09:20:31.885Z,61.00
2019-04-14T09:23:01.984Z,60.60
2019-04-14T09:25:32.214Z,62.40
2019-04-14T09:28:02.228Z,60.60
2019-04-14T09:30:32.383Z,60.90
2019-04-14T09:33:05.688Z,58.80
2019-04-14T09:35:35.033Z,58.30
2019-04-14T09:38:04.487Z,58.40
2019-04-14T09:40:33.874Z,58.30
2019-04-14T09:43:04.355Z,58.00
2019-04-14T09:45:33.682Z,58.90
2019-04-14T09:48:03.466Z,57.90
2019-04-14T09:50:33.802Z,57.50
2019-04-14T09:53:03.767Z,56.50
2019-04-14T09:55:33.798Z,56.20
2019-04-14T09:58:04.107Z,56.50
2019-04-14T10:00:35.264Z,56.40
2019-04-14T10:03:04.745Z,56.90
2019-04-14T10:05:34.344Z,53.20
2019-04-14T10:08:04.646Z,53.00
2019-04-14T10:10:34.721Z,52.30
2019-04-14T10:13:05.134Z,52.60
2019-04-14T10:15:34.988Z,54.00
2019-04-14T10:18:05.230Z,51.80
2019-04-14T10:20:35.329Z,51.00
2019-04-14T10:23:05.460Z,49.10
2019-04-14T10:25:35.558Z,50.80
2019-04-14T10:28:05.803Z,50.10
2019-04-14T10:30:35.855Z,50.90
2019-04-14T10:33:06.087Z,50.90
2019-04-14T10:35:36.134Z,50.90
2019-04-14T10:38:06.376Z,52.60
2019-04-14T10:40:36.497Z,50.10
2019-04-14T10:43:06.740Z,50.90
2019-04-14T10:45:38.651Z,51.40
2019-04-14T10:48:07.991Z,48.00
2019-04-14T10:50:37.289Z,50.10
2019-04-14T10:53:07.230Z,51.60
2019-04-14T10:55:37.451Z,49.20
2019-04-14T10:58:07.606Z,47.90
2019-04-14T11:00:37.718Z,50.30
2019-04-14T11:03:07.954Z,49.00
2019-04-14T11:05:39.683Z,46.50
2019-04-14T11:08:09.015Z,48.30
2019-04-14T11:10:38.373Z,48.30
2019-04-14T11:13:08.610Z,49.20
2019-04-14T11:15:38.670Z,47.20
2019-04-14T11:18:08.931Z,49.40
2019-04-14T11:20:38.954Z,47.40
2019-04-14T11:23:09.225Z,46.30
2019-04-14T11:25:39.267Z,46.20
2019-04-14T11:28:09.515Z,46.50
2019-04-14T11:30:39.652Z,44.40
2019-04-14T11:33:11.383Z,45.80
2019-04-14T11:35:51.273Z,43.30
2019-04-14T11:38:24.996Z,43.40
2019-04-14T11:40:55.971Z,45.20
2019-04-14T11:43:25.284Z,45.60
2019-04-14T11:45:54.657Z,45.90
2019-04-14T11:48:25.805Z,45.60
2019-04-14T11:50:55.158Z,43.00
2019-04-14T11:53:24.481Z,45.40
2019-04-14T11:55:53.790Z,46.00
2019-04-14T11:58:23.090Z,44.40
2019-04-14T12:01:00.074Z,45.10
2019-04-14T12:03:39.826Z,43.80
2019-04-14T12:06:29.082Z,43.90
2019-04-14T12:09:16.155Z,45.00
2019-04-14T12:11:45.449Z,45.70
2019-04-14T12:14:14.745Z,43.20
2019-04-14T12:16:44.074Z,40.70
2019-04-14T12:19:13.402Z,42.90
2019-04-14T12:21:42.715Z,43.60
2019-04-14T12:24:12.990Z,42.50
2019-04-14T12:26:42.958Z,41.90
2019-04-14T12:29:14.113Z,41.60
2019-04-14T12:31:44.088Z,40.90
2019-04-14T12:34:18.256Z,41.90
2019-04-14T12:36:47.758Z,38.90
2019-04-14T12:39:22.877Z,41.20
2019-04-14T12:41:59.822Z,40.50
2019-04-14T12:44:45.652Z,42.70
2019-04-14T12:47:39.542Z,42.00
2019-04-14T12:50:10.153Z,41.00
2019-04-14T12:52:39.445Z,40.80
2019-04-14T12:55:08.831Z,39.00
2019-04-14T12:57:39.798Z,41.90
2019-04-14T13:00:11.139Z,41.40
2019-04-14T13:02:42.138Z,42.00
2019-04-14T13:05:11.542Z,41.10
2019-04-14T13:07:40.865Z,40.20
2019-04-14T13:10:10.421Z,38.90
2019-04-14T13:12:39.733Z,41.40
2019-04-14T13:15:09.326Z,40.60
2019-04-14T13:17:38.638Z,40.70
2019-04-14T13:20:09.198Z,40.80
2019-04-14T13:22:38.576Z,41.80
2019-04-14T13:25:08.884Z,42.70
2019-04-14T13:27:38.377Z,43.40
2019-04-14T13:30:11.442Z,41.10
2019-04-14T13:33:50.387Z,41.40
2019-04-14T13:35:18.199Z,44.00
2019-04-14T13:37:47.515Z,41.50
2019-04-14T13:40:17.458Z,43.90
2019-04-14T13:42:49.398Z,44.00
2019-04-14T13:45:18.735Z,44.20
2019-04-14T13:47:48.056Z,43.30
2019-04-14T13:50:17.969Z,43.10
2019-04-14T13:52:48.151Z,43.20
2019-04-14T13:55:18.399Z,43.50
2019-04-14T13:57:48.467Z,42.20
2019-04-14T14:00:19.127Z,42.50
2019-04-14T14:02:48.733Z,42.20
2019-04-14T14:05:18.904Z,43.30
2019-04-14T14:07:49.033Z,43.70
2019-04-14T14:10:19.338Z,45.00
2019-04-14T14:12:59.585Z,44.00
2019-04-14T14:15:42.378Z,41.50
2019-04-14T14:18:31.590Z,42.90
2019-04-14T14:21:02.541Z,44.50
2019-04-14T14:23:49.538Z,44.10
2019-04-14T14:26:23.554Z,47.20
2019-04-14T14:28:52.870Z,46.70
2019-04-14T14:31:22.381Z,45.50
2019-04-14T14:33:51.695Z,46.00
2019-04-14T14:36:22.536Z,45.80
2019-04-14T14:38:51.881Z,46.90
2019-04-14T14:41:21.239Z,47.00
2019-04-14T14:43:51.286Z,49.30
2019-04-14T14:46:29.024Z,50.70
2019-04-14T14:49:00.010Z,49.40
2019-04-14T14:51:32.868Z,50.50
2019-04-14T14:54:02.075Z,49.90
2019-04-14T14:56:31.470Z,49.80
2019-04-14T14:59:00.808Z,49.30
2019-04-14T15:01:30.103Z,49.50
2019-04-14T15:03:59.418Z,50.30
2019-04-14T15:06:28.743Z,49.90
2019-04-14T15:08:58.242Z,49.70
2019-04-14T15:11:27.547Z,49.60
2019-04-14T15:13:56.878Z,49.70
2019-04-14T15:16:26.272Z,50.90
2019-04-14T15:18:55.575Z,51.60
2019-04-14T15:21:24.952Z,51.30
2019-04-14T15:23:54.359Z,51.40
2019-04-14T15:26:24.462Z,51.90
2019-04-14T15:28:54.631Z,52.00
2019-04-14T15:31:24.856Z,51.80
2019-04-14T15:33:54.969Z,52.40
2019-04-14T15:36:25.362Z,51.80
2019-04-14T15:38:55.248Z,51.90
2019-04-14T15:41:25.495Z,52.10
2019-04-14T15:43:55.561Z,52.40
2019-04-14T15:46:25.701Z,51.10
2019-04-14T15:48:56.118Z,51.20
2019-04-14T15:51:26.096Z,51.20
2019-04-14T15:53:56.139Z,51.30
2019-04-14T15:56:31.060Z,51.40
2019-04-14T15:59:08.056Z,50.50
2019-04-14T16:01:38.996Z,51.40
2019-04-14T16:04:15.861Z,52.60
2019-04-14T16:06:46.805Z,51.90
2019-04-14T16:09:35.755Z,53.50
2019-04-14T16:12:09.368Z,54.10
2019-04-14T16:14:40.413Z,53.90
2019-04-14T16:17:27.293Z,54.10
2019-04-14T16:19:59.248Z,53.30
2019-04-14T16:22:28.610Z,54.20
2019-04-14T16:24:57.941Z,54.90
2019-04-14T16:27:35.927Z,54.30
2019-04-14T16:30:07.825Z,53.40
2019-04-14T16:32:54.049Z,55.00
2019-04-14T16:35:30.617Z,57.10
2019-04-14T16:37:59.938Z,55.70
2019-04-14T16:40:29.333Z,55.60
2019-04-14T16:42:59.103Z,56.00
2019-04-14T16:45:29.153Z,57.30
2019-04-14T16:47:59.351Z,56.80
2019-04-14T16:50:29.425Z,55.70
2019-04-14T16:53:01.196Z,56.80
2019-04-14T16:55:33.209Z,55.70
2019-04-14T16:58:04.158Z,56.10
2019-04-14T17:00:37.113Z,57.70
2019-04-14T17:03:06.257Z,59.00
2019-04-14T17:05:35.621Z,61.10
2019-04-14T17:08:04.930Z,61.40
2019-04-14T17:10:34.337Z,61.00
2019-04-14T17:13:03.935Z,59.60
2019-04-14T17:15:34.962Z,58.90
2019-04-14T17:18:05.979Z,59.00
2019-04-14T17:20:36.934Z,59.40
2019-04-14T17:23:07.953Z,59.80
2019-04-14T17:25:38.967Z,60.40
2019-04-14T17:28:15.898Z,61.60
2019-04-14T17:30:46.904Z,61.30
2019-04-14T17:33:20.038Z,62.20
2019-04-14T17:36:09.998Z,61.00
2019-04-14T17:38:40.993Z,59.20
2019-04-14T17:41:26.639Z,60.20
2019-04-14T17:43:57.708Z,60.70
2019-04-14T17:46:28.637Z,60.80
2019-04-14T17:49:02.435Z,60.20
2019-04-14T17:51:37.505Z,59.60
2019-04-14T17:54:08.614Z,60.70
2019-04-14T17:56:39.559Z,60.10
2019-04-14T17:59:15.294Z,60.50
2019-04-14T18:01:46.156Z,61.60
2019-04-14T18:04:30.683Z,61.60
2019-04-14T18:07:01.638Z,63.00
2019-04-14T18:09:49.016Z,63.70
2019-04-14T18:12:22.851Z,64.00
2019-04-14T18:14:53.783Z,65.00
2019-04-14T18:17:27.676Z,65.70
2019-04-14T18:20:01.385Z,66.10
2019-04-14T18:22:30.961Z,66.60
2019-04-14T18:25:00.345Z,67.30
2019-04-14T18:27:31.291Z,68.00
2019-04-14T18:30:01.595Z,68.00
2019-04-14T18:32:32.988Z,68.20
2019-04-14T18:35:06.709Z,68.40
2019-04-14T18:37:40.528Z,68.60
2019-04-14T18:40:26.383Z,69.00
2019-04-14T18:43:02.819Z,69.40
2019-04-14T18:45:36.681Z,70.50
2019-04-14T18:48:24.187Z,70.30
2019-04-14T18:51:11.827Z,70.60
2019-04-14T18:53:45.512Z,70.90
2019-04-14T18:56:25.566Z,70.40
2019-04-14T18:59:12.575Z,71.30
2019-04-14T19:01:43.572Z,69.90
2019-04-14T19:04:12.877Z,69.90
2019-04-14T19:06:42.204Z,69.80
2019-04-14T19:09:11.610Z,70.00
2019-04-14T19:11:45.446Z,69.50
2019-04-14T19:14:16.415Z,69.70
2019-04-14T19:16:47.426Z,70.00
2019-04-14T19:19:17.580Z,71.40
2019-04-14T19:21:46.840Z,72.00
2019-04-14T19:24:16.146Z,71.30
2019-04-14T19:26:45.463Z,71.80
2019-04-14T19:29:15.025Z,71.70
2019-04-14T19:31:44.355Z,71.60
2019-04-14T19:34:13.672Z,71.70
2019-04-14T19:36:42.992Z,72.60
2019-04-14T19:39:13.222Z,72.40
2019-04-14T19:41:42.608Z,73.00
2019-04-14T19:44:11.901Z,72.40
2019-04-14T19:46:42.614Z,72.30
2019-04-14T19:49:11.924Z,73.60
2019-04-14T19:51:41.352Z,73.60
2019-04-14T19:54:10.653Z,73.80
2019-04-14T19:56:40.682Z,73.30
2019-04-14T19:59:10.699Z,73.20
2019-04-14T20:01:40.916Z,72.90
2019-04-14T20:04:11.025Z,74.00
2019-04-14T20:06:41.283Z,71.00
2019-04-14T20:09:11.340Z,71.50
2019-04-14T20:11:41.485Z,72.10
2019-04-14T20:14:11.753Z,74.40
2019-04-14T20:16:45.949Z,73.60
2019-04-14T20:19:19.647Z,73.90
2019-04-14T20:21:53.396Z,75.60
2019-04-14T20:24:39.798Z,74.90
2019-04-14T20:27:13.303Z,74.20
2019-04-14T20:29:47.083Z,75.70
2019-04-14T20:32:16.968Z,76.30
2019-04-14T20:34:46.282Z,75.90
2019-04-14T20:37:15.794Z,76.40
2019-04-14T20:39:45.147Z,77.30
2019-04-14T20:42:14.526Z,77.90
2019-04-14T20:44:43.848Z,78.20
2019-04-14T20:47:13.756Z,78.40
2019-04-14T20:49:44.783Z,78.20
2019-04-14T20:52:14.149Z,77.30
2019-04-14T20:54:44.098Z,77.90
2019-04-14T20:57:14.374Z,77.60
2019-04-14T20:59:44.467Z,78.80
2019-04-14T21:02:22.332Z,79.40
2019-04-14T21:05:09.630Z,79.00
2019-04-14T21:07:46.369Z,79.50
2019-04-14T21:10:17.363Z,79.70
2019-04-14T21:12:50.248Z,79.80
2019-04-14T21:15:23.778Z,80.50
2019-04-14T21:18:03.226Z,81.00
2019-04-14T21:20:34.316Z,81.40
2019-04-14T21:23:05.260Z,82.10
2019-04-14T21:25:36.222Z,82.90
2019-04-14T21:28:06.385Z,83.80
2019-04-14T21:30:37.307Z,84.60
2019-04-14T21:33:11.299Z,85.30
2019-04-14T21:35:49.414Z,86.00
2019-04-14T21:38:20.952Z,87.20
2019-04-14T21:40:57.346Z,87.50
2019-04-14T21:43:26.668Z,88.30
2019-04-14T21:45:55.974Z,88.80
2019-04-14T21:48:25.279Z,88.90
2019-04-14T21:50:54.608Z,89.80
2019-04-14T21:53:23.924Z,90.10
2019-04-14T21:55:53.230Z,90.30
2019-04-14T21:58:27.169Z,90.40
2019-04-14T22:01:33.910Z,90.60
2019-04-14T22:04:18.184Z,90.70
2019-04-14T22:06:55.794Z,90.90
2019-04-14T22:09:32.949Z,91.30
2019-04-14T22:12:04.054Z,91.40
2019-04-14T22:14:33.390Z,91.50
2019-04-14T22:17:02.691Z,91.50
2019-04-14T22:19:38.411Z,91.70
2019-04-14T22:22:07.750Z,91.80
2019-04-14T22:24:37.045Z,92.00
2019-04-14T22:27:06.381Z,92.00
2019-04-14T22:29:35.679Z,92.20
2019-04-14T22:32:04.978Z,92.00
2019-04-14T22:34:34.286Z,92.10
2019-04-14T22:37:03.599Z,92.30
2019-04-14T22:39:32.983Z,92.40
2019-04-14T22:42:02.394Z,92.60
2019-04-14T22:44:31.711Z,93.00
2019-04-14T22:47:01.024Z,93.10
2019-04-14T22:49:30.436Z,93.00
2019-04-14T22:51:59.775Z,93.40
2019-04-14T22:54:29.096Z,93.30
2019-04-14T22:56:58.421Z,93.30
2019-04-14T22:59:27.732Z,93.50
2019-04-14T23:02:01.501Z,93.60
2019-04-14T23:04:32.480Z,93.70
2019-04-14T23:07:11.425Z,93.80
2019-04-14T23:09:48.438Z,94.00
2019-04-14T23:12:28.157Z,94.50
2019-04-14T23:15:08.097Z,94.60
2019-04-14T23:17:51.088Z,94.70
2019-04-14T23:20:24.641Z,94.80
2019-04-14T23:23:04.129Z,95.00
2019-04-14T23:25:33.641Z,95.10
2019-04-14T23:28:03.018Z,95.00
2019-04-14T23:30:32.319Z,95.50
2019-04-14T23:33:01.645Z,95.30
2019-04-14T23:35:31.964Z,95.60
2019-04-14T23:38:02.268Z,95.00
2019-04-14T23:40:31.839Z,94.60
2019-04-14T23:43:01.131Z,94.70
2019-04-14T23:45:30.423Z,94.10
2019-04-14T23:47:59.733Z,94.00
2019-04-14T23:50:29.138Z,93.70
2019-04-14T23:52:58.516Z,93.50
2019-04-14T23:55:27.919Z,93.40
2019-04-14T23:57:57.372Z,93.80
